Time;durP1;ratioP1;P1;durP2;ratioP2;P2;SDS_P1;SDS_P2;PMS_P1;PMS_P2;Temp;Humidity;BMP_temperature;BMP_pressure;BME280_temperature;BME280_humidity;BME280_pressure;Samples;Min_cycle;Max_cycle;Signal;HPM_P1;HPM_P2
2023/01/30 00:02:02;;;;;;;27.17;16.88;;;;;;;5.06;71.31;100502.25;5052931;28;20060;-61
2023/01/30 00:04:30;;;;;;;26.98;17.23;;;;;;;5.19;70.86;100498.94;5049305;28;20056;-61
2023/01/30 00:06:57;;;;;;;27.45;16.73;;;;;;;5.04;70.97;100477.69;5045851;28;20054;-62
2023/01/30 00:09:25;;;;;;;24.88;15.52;;;;;;;5.09;71.67;100479.63;5054315;28;20123;-61
2023/01/30 00:11:52;;;;;;;26.88;17.27;;;;;;;5.07;71.77;100482.66;5060820;28;20056;-61
2023/01/30 00:14:19;;;;;;;32.47;17.67;;;;;;;5.01;71.50;100488.47;5054075;28;20119;-62
2023/01/30 00:16:48;;;;;;;30.95;17.90;;;;;;;4.95;72.41;100489.56;5050977;28;20405;-62
2023/01/30 00:19:15;;;;;;;26.77;17.52;;;;;;;4.98;72.02;100489.03;5055636;28;20056;-61
2023/01/30 00:21:42;;;;;;;28.73;18.15;;;;;;;5.00;72.25;100498.69;5054895;28;20049;-61
2023/01/30 00:24:10;;;;;;;29.45;18.63;;;;;;;4.98;72.54;100494.53;5057131;28;20060;-61
2023/01/30 00:26:37;;;;;;;26.50;17.23;;;;;;;5.12;72.03;100490.09;5052077;28;20045;-62
2023/01/30 00:29:04;;;;;;;26.77;16.52;;;;;;;5.24;72.07;100485.09;5051544;28;20053;-61
2023/01/30 00:31:31;;;;;;;27.83;17.55;;;;;;;5.31;71.93;100498.63;5051247;28;20060;-61
2023/01/30 00:34:00;;;;;;;30.17;18.48;;;;;;;5.31;71.92;100486.75;5050645;28;20056;-62
2023/01/30 00:36:27;;;;;;;29.48;17.70;;;;;;;5.32;71.66;100494.78;5050839;28;20425;-61
2023/01/30 00:38:57;;;;;;;29.55;17.58;;;;;;;5.33;71.71;100524.03;5052084;28;20067;-61
2023/01/30 00:47:03;;;;;;;33.30;19.23;;;;;;;5.21;71.87;100477.41;5051574;28;20053;-61
2023/01/30 00:47:07;;;;;;;29.15;17.30;;;;;;;5.47;71.87;100463.53;5054911;28;20064;-62
2023/01/30 00:49:36;;;;;;;30.58;17.48;;;;;;;5.40;71.67;100443.66;5056884;28;20056;-61
2023/01/30 00:52:05;;;;;;;30.13;18.17;;;;;;;5.35;72.25;100444.50;5055576;28;20056;-61
2023/01/30 00:54:32;;;;;;;27.85;17.80;;;;;;;5.40;71.88;100435.38;5055430;28;20048;-61
2023/01/30 00:57:00;;;;;;;31.25;18.13;;;;;;;5.40;72.18;100433.44;5051192;28;20049;-61
2023/01/30 00:59:28;;;;;;;26.38;17.55;;;;;;;5.28;72.25;100428.22;5070653;28;20404;-61
2023/01/30 01:01:55;;;;;;;26.30;16.67;;;;;;;5.47;72.64;100441.44;5064140;28;20052;-61
2023/01/30 01:04:22;;;;;;;26.80;16.45;;;;;;;5.45;72.66;100435.34;5053260;28;20600;-61
2023/01/30 01:06:51;;;;;;;25.42;15.75;;;;;;;5.62;72.54;100412.91;5052814;28;20052;-61
2023/01/30 01:09:19;;;;;;;25.92;17.20;;;;;;;5.66;72.56;100422.28;5064857;28;20060;-62
2023/01/30 01:11:46;;;;;;;26.45;17.20;;;;;;;5.63;72.28;100415.41;5053114;28;20409;-61
2023/01/30 01:14:13;;;;;;;27.38;16.58;;;;;;;5.65;72.43;100426.19;5055598;28;20049;-62
2023/01/30 01:16:40;;;;;;;25.52;15.93;;;;;;;5.75;72.46;100408.72;5055485;28;20057;-61
2023/01/30 01:19:08;;;;;;;25.85;16.58;;;;;;;5.78;72.12;100413.69;5055107;28;20053;-61
2023/01/30 01:21:35;;;;;;;25.30;16.20;;;;;;;5.83;72.04;100405.34;5052852;28;20076;-61
2023/01/30 01:24:04;;;;;;;26.45;16.15;;;;;;;5.90;72.01;100397.59;5059022;28;20059;-62
2023/01/30 01:26:31;;;;;;;25.50;16.43;;;;;;;5.80;72.16;100389.34;5057860;28;20053;-61
2023/01/30 01:28:59;;;;;;;27.77;17.55;;;;;;;5.70;72.44;100365.34;5054957;28;20048;-61
2023/01/30 01:31:26;;;;;;;25.85;16.67;;;;;;;5.77;72.27;100384.38;5055564;28;20409;-61
2023/01/30 01:33:54;;;;;;;28.98;17.25;;;;;;;5.77;72.16;100356.75;5055443;28;20056;-61
2023/01/30 01:36:21;;;;;;;28.58;18.38;;;;;;;5.80;72.55;100353.41;5052776;28;20052;-61
2023/01/30 01:38:48;;;;;;;30.00;16.65;;;;;;;5.78;72.55;100358.41;5070355;28;20041;-62
2023/01/30 01:41:17;;;;;;;30.10;17.40;;;;;;;5.80;72.52;100361.72;5060889;28;20057;-61
2023/01/30 01:44:00;;;;;;;25.92;15.60;;;;;;;5.90;72.88;100364.41;5054988;28;20391;-61
2023/01/30 01:46:32;;;;;;;24.92;16.50;;;;;;;5.92;73.15;100348.34;5055070;28;20432;-62
2023/01/30 01:49:04;;;;;;;24.83;16.42;;;;;;;5.94;73.26;100348.88;5054659;28;20053;-60
2023/01/30 01:51:34;;;;;;;27.27;16.60;;;;;;;6.01;73.63;100354.97;5054945;28;20052;-61
2023/01/30 01:54:06;;;;;;;29.08;16.73;;;;;;;6.03;73.99;100357.47;5058940;28;20048;-61
2023/01/30 01:56:38;;;;;;;24.58;16.15;;;;;;;6.00;74.16;100335.91;5060396;28;20052;-61
2023/01/30 01:59:11;;;;;;;23.80;15.10;;;;;;;5.92;74.62;100367.69;5054763;28;20386;-62
2023/01/30 02:01:38;;;;;;;25.15;15.52;;;;;;;6.00;74.53;100345.00;5054928;28;20064;-61
2023/01/30 02:04:08;;;;;;;24.25;14.63;;;;;;;6.03;74.48;100338.91;5054515;28;20049;-61
2023/01/30 02:06:39;;;;;;;20.42;13.20;;;;;;;5.99;74.54;100325.97;5054793;28;20060;-61
2023/01/30 02:09:10;;;;;;;18.60;12.02;;;;;;;5.94;74.78;100320.41;5058015;28;20055;-61
2023/01/30 02:11:44;;;;;;;19.80;12.85;;;;;;;5.93;75.15;100308.53;5065233;28;20067;-61
2023/01/30 02:14:12;;;;;;;20.17;12.80;;;;;;;5.95;75.25;100319.34;5074287;28;20473;-61
2023/01/30 02:16:39;;;;;;;22.20;12.90;;;;;;;5.89;75.00;100304.69;5074255;28;20048;-61
2023/01/30 02:19:23;;;;;;;20.95;14.18;;;;;;;5.94;75.76;100314.91;5073691;28;20055;-60
2023/01/30 02:22:30;;;;;;;20.40;13.25;;;;;;;6.03;75.65;100305.75;5067736;28;20315;-61
2023/01/30 02:25:19;;;;;;;20.50;13.57;;;;;;;5.95;75.66;100298.06;5037417;28;20048;-61
2023/01/30 02:28:11;;;;;;;19.65;12.77;;;;;;;6.01;75.82;100318.22;5054507;28;20053;-62
2023/01/30 02:31:17;;;;;;;22.38;13.50;;;;;;;5.97;76.00;100295.84;5054586;28;20484;-61
2023/01/30 02:33:54;;;;;;;26.02;13.35;;;;;;;5.93;75.96;100283.66;5054329;28;20478;-62
2023/01/30 02:36:29;;;;;;;20.80;13.52;;;;;;;5.97;76.00;100265.41;5053160;28;20461;-61
2023/01/30 02:39:06;;;;;;;19.90;13.20;;;;;;;5.99;76.24;100281.72;5067313;28;20477;-61
2023/01/30 02:41:43;;;;;;;21.88;14.77;;;;;;;5.95;76.25;100275.94;5057497;28;20057;-61
2023/01/30 02:44:17;;;;;;;25.95;15.27;;;;;;;5.94;75.95;100271.47;5053643;28;20057;-61
2023/01/30 02:46:54;;;;;;;26.80;16.95;;;;;;;5.90;76.06;100248.31;5054126;28;20521;-62
2023/01/30 02:49:27;;;;;;;25.55;15.93;;;;;;;5.98;76.00;100247.72;5053440;28;20402;-61
2023/01/30 02:51:57;;;;;;;25.08;16.45;;;;;;;6.04;76.43;100257.59;5056780;28;20052;-62
2023/01/30 02:54:24;;;;;;;;;;;;;;;6.10;75.82;100256.44;5073598;28;20075;-61
2023/01/30 02:56:54;;;;;;;26.55;16.25;;;;;;;6.05;76.05;100256.50;5057304;28;19921;-62
2023/01/30 02:59:27;;;;;;;24.33;15.88;;;;;;;6.02;75.98;100256.25;5053615;28;20065;-61
2023/01/30 03:02:16;;;;;;;30.15;18.08;;;;;;;6.08;76.21;100261.44;5053959;28;20059;-61
2023/01/30 03:05:03;;;;;;;26.95;16.35;;;;;;;6.22;75.83;100250.56;5051374;28;20088;-61
2023/01/30 03:07:44;;;;;;;28.02;16.75;;;;;;;6.28;75.75;100245.81;5051294;28;20112;-61
2023/01/30 03:10:22;;;;;;;27.45;17.38;;;;;;;6.28;75.63;100257.69;5052984;28;20064;-60
2023/01/30 03:12:57;;;;;;;28.52;17.17;;;;;;;6.34;74.85;100249.31;5033897;28;20060;-62
2023/01/30 03:15:30;;;;;;;29.60;17.35;;;;;;;6.35;74.87;100254.56;5033652;28;20057;-62
2023/01/30 03:17:59;;;;;;;26.38;17.30;;;;;;;6.34;74.51;100249.31;5046406;28;20048;-62
2023/01/30 03:20:27;;;;;;;29.63;18.65;;;;;;;6.35;74.54;100242.69;5064643;28;20053;-61
2023/01/30 03:22:54;;;;;;;26.92;17.42;;;;;;;6.33;74.96;100237.44;5073508;28;20057;-60
2023/01/30 03:25:25;;;;;;;27.65;17.05;;;;;;;6.36;75.19;100217.47;5072515;28;20049;-60
2023/01/30 03:27:55;;;;;;;27.33;17.58;;;;;;;6.38;75.67;100218.00;5052388;28;20052;-60
2023/01/30 03:30:25;;;;;;;29.73;17.70;;;;;;;6.28;75.19;100207.91;5053029;28;20493;-60
2023/01/30 03:32:52;;;;;;;27.30;17.70;;;;;;;6.35;75.42;100213.09;5052553;28;20052;-60
2023/01/30 03:35:24;;;;;;;27.60;17.40;;;;;;;6.35;75.72;100199.25;5059747;28;20060;-60
2023/01/30 03:37:51;;;;;;;31.45;18.63;;;;;;;6.38;75.60;100198.66;5056154;28;20060;-60
2023/01/30 03:40:19;;;;;;;28.40;17.02;;;;;;;6.39;75.23;100208.63;5052712;28;20057;-60
2023/01/30 03:42:46;;;;;;;28.33;17.50;;;;;;;6.43;74.98;100209.69;5052311;28;20053;-60
2023/01/30 03:45:14;;;;;;;30.30;17.63;;;;;;;6.37;75.17;100199.78;5052770;28;20505;-60
2023/01/30 03:47:41;;;;;;;28.30;18.05;;;;;;;6.43;75.11;100195.84;5053004;28;20056;-59
2023/01/30 03:50:10;;;;;;;27.15;16.83;;;;;;;6.42;75.73;100190.59;5052205;28;20049;-60
2023/01/30 03:52:38;;;;;;;26.52;17.13;;;;;;;6.46;75.85;100186.94;5066080;28;20053;-60
2023/01/30 03:55:06;;;;;;;29.55;19.20;;;;;;;6.52;75.61;100181.38;5052459;28;20493;-60
2023/01/30 03:57:34;;;;;;;30.17;18.58;;;;;;;6.48;74.83;100161.75;5051803;28;20048;-59
2023/01/30 04:00:01;;;;;;;26.25;16.98;;;;;;;6.38;74.91;100159.91;5052769;28;20060;-59
2023/01/30 04:02:30;;;;;;;24.80;17.13;;;;;;;6.40;75.86;100149.38;5043084;28;20052;-60
2023/01/30 04:04:57;;;;;;;27.92;17.17;;;;;;;6.44;75.35;100164.28;5032846;28;20053;-60
2023/01/30 04:07:24;;;;;;;26.15;17.27;;;;;;;6.49;75.76;100147.63;5049530;28;20421;-60
2023/01/30 04:09:53;;;;;;;27.10;17.55;;;;;;;6.46;75.83;100144.63;5051539;28;20049;-60
2023/01/30 04:12:20;;;;;;;26.23;16.98;;;;;;;6.42;75.78;100151.88;5051257;28;20063;-60
2023/01/30 04:14:48;;;;;;;24.90;17.85;;;;;;;6.52;76.02;100148.16;5052199;28;20049;-60
2023/01/30 04:17:15;;;;;;;24.02;15.55;;;;;;;6.50;75.91;100154.00;5064076;28;20048;-60
2023/01/30 04:19:42;;;;;;;29.65;17.52;;;;;;;6.49;75.76;100142.09;5072194;28;20051;-60
2023/01/30 04:22:10;;;;;;;25.23;17.17;;;;;;;6.60;76.10;100136.44;5066703;28;20056;-60
2023/01/30 04:24:37;;;;;;;24.23;15.45;;;;;;;6.60;75.55;100136.44;5072147;28;20063;-60
2023/01/30 04:27:05;;;;;;;23.25;15.60;;;;;;;6.61;76.17;100141.66;5050660;28;20053;-60
2023/01/30 04:29:33;;;;;;;26.67;16.45;;;;;;;6.61;75.57;100141.66;5052182;28;20056;-60
2023/01/30 04:32:00;;;;;;;23.55;15.00;;;;;;;6.68;75.63;100155.97;5051331;28;20518;-60
2023/01/30 04:34:27;;;;;;;27.45;16.65;;;;;;;6.65;76.42;100136.38;5063331;28;20045;-60
2023/01/30 04:36:54;;;;;;;24.60;15.70;;;;;;;6.70;76.06;100137.13;5058776;28;20059;-59
2023/01/30 04:39:22;;;;;;;25.60;17.23;;;;;;;6.68;76.11;100144.09;5064149;28;20045;-62
2023/01/30 04:41:49;;;;;;;27.13;15.95;;;;;;;6.68;76.98;100135.78;5058941;28;20059;-62
2023/01/30 04:44:17;;;;;;;26.45;16.95;;;;;;;6.76;76.87;100137.91;5070386;28;20059;-61
2023/01/30 04:46:46;;;;;;;26.35;17.58;;;;;;;6.67;77.02;100134.94;5063662;28;20053;-61
2023/01/30 04:49:13;;;;;;;23.52;15.50;;;;;;;6.57;77.79;100132.31;5054197;28;20056;-61
2023/01/30 04:51:42;;;;;;;23.38;14.15;;;;;;;6.71;76.93;100127.69;5060793;28;20094;-61
2023/01/30 04:54:09;;;;;;;21.42;14.73;;;;;;;6.76;77.56;100125.97;5065333;28;20423;-61
2023/01/30 04:56:36;;;;;;;22.42;14.55;;;;;;;6.64;77.95;100132.78;5051817;28;20490;-61
2023/01/30 04:59:04;;;;;;;20.88;13.90;;;;;;;6.75;77.37;100127.13;5050892;28;20135;-61
2023/01/30 05:01:35;;;;;;;20.02;13.93;;;;;;;6.70;78.12;100116.94;5051424;28;20485;-61
2023/01/30 05:04:03;;;;;;;20.08;13.70;;;;;;;6.64;77.78;100115.38;5051909;28;20055;-61
2023/01/30 05:06:32;;;;;;;25.17;15.50;;;;;;;6.73;77.51;100130.19;5058548;28;20076;-61
2023/01/30 05:08:59;;;;;;;22.02;14.45;;;;;;;6.75;77.92;100110.50;5059912;28;20049;-62
2023/01/30 05:11:29;;;;;;;24.83;14.52;;;;;;;6.67;78.46;100098.97;5071372;28;20057;-61
2023/01/30 05:13:56;;;;;;;23.52;13.05;;;;;;;6.70;78.39;100103.09;5071586;28;20056;-61
2023/01/30 05:16:24;;;;;;;19.58;13.43;;;;;;;6.79;79.16;100111.56;5071536;28;20052;-62
2023/01/30 05:18:53;;;;;;;19.80;13.77;;;;;;;6.79;78.90;100117.91;5071570;28;20063;-61
2023/01/30 05:21:22;;;;;;;17.48;11.82;;;;;;;6.77;78.21;100111.84;5066617;28;20507;-61
2023/01/30 05:23:50;;;;;;;15.90;11.18;;;;;;;6.80;77.96;100116.78;5051496;28;20406;-62
2023/01/30 05:26:18;;;;;;;16.75;11.38;;;;;;;6.79;77.96;100097.72;5051706;28;20140;-62
2023/01/30 05:28:50;;;;;;;13.55;9.57;;;;;;;6.77;78.70;100117.38;5054629;28;20056;-61
2023/01/30 05:31:17;;;;;;;14.50;9.85;;;;;;;6.84;77.53;100104.00;5052013;28;20049;-62
2023/01/30 05:33:47;;;;;;;15.65;10.18;;;;;;;6.91;77.56;100101.69;5055160;28;20049;-61
2023/01/30 05:36:16;;;;;;;;;;;;;;;6.94;78.24;100096.69;5059829;28;20048;-62
2023/01/30 05:38:44;;;;;;;11.60;7.77;;;;;;;7.02;77.05;100104.31;5058101;28;19927;-62
2023/01/30 05:41:13;;;;;;;12.48;8.63;;;;;;;7.05;77.70;100101.75;5053728;28;20487;-61
2023/01/30 05:43:40;;;;;;;12.50;7.90;;;;;;;7.08;77.66;100092.03;5054471;28;20068;-62
2023/01/30 05:46:09;;;;;;;12.05;7.43;;;;;;;7.08;77.59;100094.81;5067382;28;20053;-61
2023/01/30 05:48:36;;;;;;;9.27;7.53;;;;;;;7.11;76.91;100083.13;5074935;28;20053;-62
2023/01/30 05:51:04;;;;;;;11.80;8.35;;;;;;;7.06;76.93;100089.56;5065780;28;20048;-62
2023/01/30 05:53:34;;;;;;;12.75;8.20;;;;;;;7.08;76.90;100080.97;5052911;28;20061;-61
2023/01/30 05:56:02;;;;;;;;;;;;;;;7.15;77.36;100091.66;5055213;28;20492;-61
2023/01/30 05:58:30;;;;;;;15.18;9.27;;;;;;;7.14;77.84;100090.84;5052423;28;20281;-59
2023/01/30 06:01:00;;;;;;;13.55;9.10;;;;;;;7.13;77.89;100105.78;5057429;28;20053;-61
2023/01/30 06:03:28;;;;;;;11.32;8.18;;;;;;;7.18;77.41;100107.66;5073948;28;20056;-62
2023/01/30 06:05:56;;;;;;;10.95;8.25;;;;;;;7.15;78.57;100103.53;5061913;28;20511;-62
2023/01/30 06:08:23;;;;;;;14.95;9.85;;;;;;;7.14;77.99;100095.53;5063405;28;20508;-61
2023/01/30 06:10:52;;;;;;;12.63;8.30;;;;;;;7.20;77.37;100077.72;5052752;28;20060;-62
2023/01/30 06:13:19;;;;;;;12.98;9.40;;;;;;;7.18;78.30;100091.03;5053514;28;20053;-61
2023/01/30 06:15:47;;;;;;;10.88;8.30;;;;;;;7.20;77.97;100091.56;5053463;28;20049;-62
2023/01/30 06:18:14;;;;;;;13.32;8.98;;;;;;;7.19;78.04;100087.16;5049542;28;20053;-62
2023/01/30 06:20:47;;;;;;;13.43;9.98;;;;;;;7.24;78.13;100089.84;5056615;28;20378;-62
2023/01/30 06:23:15;;;;;;;15.63;11.65;;;;;;;7.17;78.16;100104.06;5052752;28;20057;-61
2023/01/30 06:25:43;;;;;;;15.95;11.82;;;;;;;7.25;78.78;100113.66;5051929;28;20715;-62
2023/01/30 06:28:12;;;;;;;18.20;12.25;;;;;;;7.31;77.93;100113.28;5057179;28;20045;-62
2023/01/30 06:30:39;;;;;;;14.38;11.30;;;;;;;7.28;78.91;100116.63;5052539;28;20041;-62
2023/01/30 06:33:07;;;;;;;13.73;10.27;;;;;;;7.45;78.56;100118.03;5052707;28;20052;-61
2023/01/30 06:35:37;;;;;;;15.57;10.88;;;;;;;7.45;79.13;100113.31;5063176;28;20056;-62
2023/01/30 06:38:04;;;;;;;16.70;11.52;;;;;;;7.44;77.87;100113.63;5051647;28;20057;-62
2023/01/30 06:40:32;;;;;;;17.17;12.10;;;;;;;7.40;77.77;100118.13;5053670;28;20053;-61
2023/01/30 06:42:59;;;;;;;20.30;12.93;;;;;;;7.53;78.77;100111.81;5049863;28;20060;-62
2023/01/30 06:45:28;;;;;;;16.55;11.88;;;;;;;7.53;78.54;100109.03;5053061;28;20052;-61
2023/01/30 06:47:56;;;;;;;16.77;11.98;;;;;;;7.61;77.76;100111.13;5058924;28;20060;-61
2023/01/30 06:50:25;;;;;;;18.92;12.48;;;;;;;7.65;78.09;100126.00;5068073;28;20060;-61
2023/01/30 06:52:53;;;;;;;17.30;12.27;;;;;;;7.76;77.63;100134.16;5053900;28;20067;-62
2023/01/30 06:55:22;;;;;;;15.15;12.10;;;;;;;7.81;77.62;100145.16;5052864;28;20053;-61
2023/01/30 06:57:49;;;;;;;21.90;13.93;;;;;;;7.86;77.44;100139.53;5048768;28;20049;-62
2023/01/30 07:00:19;;;;;;;18.50;13.98;;;;;;;7.96;77.80;100141.28;5060613;28;20397;-61
2023/01/30 07:02:47;;;;;;;19.05;13.23;;;;;;;7.96;77.62;100144.91;5054671;28;20057;-60
2023/01/30 07:05:15;;;;;;;18.20;13.43;;;;;;;8.01;77.70;100122.59;5055596;28;20075;-61
2023/01/30 07:07:42;;;;;;;17.00;13.60;;;;;;;8.08;75.98;100131.34;5064656;28;20267;-62
2023/01/30 07:10:11;;;;;;;17.58;14.20;;;;;;;8.14;76.51;100134.84;5053556;28;20049;-62
2023/01/30 07:12:39;;;;;;;16.85;12.45;;;;;;;8.21;76.17;100129.72;5048734;28;20508;-61
2023/01/30 07:15:07;;;;;;;20.63;13.70;;;;;;;8.27;76.65;100135.97;5060178;28;20053;-59
2023/01/30 07:17:34;;;;;;;19.90;14.38;;;;;;;8.27;75.45;100144.31;5070822;28;20059;-62
2023/01/30 07:20:03;;;;;;;19.95;14.55;;;;;;;8.31;76.84;100129.50;5071876;28;20485;-62
2023/01/30 07:22:31;;;;;;;19.63;15.20;;;;;;;8.32;75.50;100124.78;5068619;28;20136;-62
2023/01/30 07:24:58;;;;;;;18.33;13.45;;;;;;;8.37;74.20;100119.13;5051659;28;20424;-61
2023/01/30 07:27:25;;;;;;;17.77;14.27;;;;;;;8.35;74.73;100132.50;5049163;28;20045;-62
2023/01/30 07:29:52;;;;;;;21.77;15.85;;;;;;;8.39;73.70;100122.41;5050983;28;20044;-61
2023/01/30 07:32:20;;;;;;;18.23;14.00;;;;;;;8.46;74.39;100133.13;5044089;28;20405;-60
2023/01/30 07:34:47;;;;;;;22.17;13.45;;;;;;;8.43;74.69;100125.44;5049851;28;20477;-61
2023/01/30 07:37:16;;;;;;;17.40;14.63;;;;;;;8.48;74.67;100131.72;5051453;28;20056;-61
2023/01/30 07:39:43;;;;;;;17.85;12.90;;;;;;;8.57;74.51;100137.38;5052534;28;20075;-61
2023/01/30 07:42:10;;;;;;;19.48;14.00;;;;;;;8.53;74.33;100151.03;5049482;28;20053;-61
2023/01/30 07:44:37;;;;;;;19.60;13.95;;;;;;;8.54;73.96;100135.19;5050611;28;20450;-61
2023/01/30 07:47:05;;;;;;;21.48;13.70;;;;;;;8.60;72.66;100141.47;5047834;28;20052;-61
2023/01/30 07:49:32;;;;;;;17.35;11.95;;;;;;;8.62;72.53;100150.31;5048193;28;20056;-61
2023/01/30 07:51:59;;;;;;;15.30;11.57;;;;;;;8.64;71.97;100142.50;5043643;28;20056;-62
2023/01/30 07:54:28;;;;;;;17.30;11.57;;;;;;;8.68;71.67;100137.97;5047730;28;20060;-64
2023/01/30 07:56:55;;;;;;;16.08;11.18;;;;;;;8.65;70.72;100152.44;5050418;28;20060;-63
2023/01/30 07:59:22;;;;;;;15.80;11.60;;;;;;;8.68;71.63;100149.88;5040866;28;20128;-63
2023/01/30 08:01:50;;;;;;;15.90;10.57;;;;;;;8.65;71.19;100144.97;5043755;28;20052;-63
2023/01/30 08:04:17;;;;;;;15.13;10.52;;;;;;;8.70;70.72;100163.47;5045077;28;20057;-63
2023/01/30 08:06:44;;;;;;;16.90;10.82;;;;;;;8.74;70.23;100158.94;5045316;28;20052;-63
2023/01/30 08:09:11;;;;;;;16.27;9.32;;;;;;;8.83;71.21;100159.03;5045242;28;20493;-63
2023/01/30 08:11:40;;;;;;;15.43;10.05;;;;;;;8.83;68.99;100161.81;5044143;28;20234;-64
2023/01/30 08:14:07;;;;;;;16.05;10.15;;;;;;;8.88;69.97;100148.66;5046073;28;20063;-64
2023/01/30 08:16:35;;;;;;;13.45;10.45;;;;;;;8.77;68.63;100151.94;5043423;28;20705;-64
2023/01/30 08:19:04;;;;;;;15.38;9.63;;;;;;;8.90;70.02;100160.28;5045356;28;20064;-63
2023/01/30 08:21:32;;;;;;;12.60;7.72;;;;;;;8.79;68.16;100171.91;5045003;28;20049;-63
2023/01/30 08:23:59;;;;;;;10.85;7.07;;;;;;;8.82;67.96;100172.09;5043266;28;20052;-64
2023/01/30 08:26:26;;;;;;;11.82;7.65;;;;;;;8.87;68.60;100174.75;5045081;28;20053;-64
2023/01/30 08:28:55;;;;;;;14.98;8.05;;;;;;;9.18;67.07;100168.53;5043930;28;20501;-64
2023/01/30 08:31:23;;;;;;;12.70;6.25;;;;;;;9.50;66.22;100180.59;5040739;28;20049;-64
2023/01/30 08:33:50;;;;;;;13.27;6.32;;;;;;;9.65;64.83;100182.19;5044280;28;20068;-61
2023/01/30 08:36:17;;;;;;;11.43;6.40;;;;;;;9.62;65.27;100172.50;5046649;28;20057;-64
2023/01/30 08:38:45;;;;;;;13.75;5.95;;;;;;;9.50;65.48;100175.84;5044058;28;20055;-64
2023/01/30 08:41:12;;;;;;;11.57;5.50;;;;;;;9.39;63.67;100179.19;5043672;28;20053;-64
2023/01/30 08:43:39;;;;;;;13.00;6.22;;;;;;;9.33;64.14;100182.09;5044404;28;20053;-63
2023/01/30 08:46:08;;;;;;;9.23;5.35;;;;;;;9.42;64.03;100184.13;5043131;28;20057;-64
2023/01/30 08:48:37;;;;;;;14.15;5.43;;;;;;;9.41;64.90;100176.91;5045327;28;20421;-63
2023/01/30 08:51:05;;;;;;;8.95;4.70;;;;;;;9.53;64.56;100183.56;5044454;28;20053;-63
2023/01/30 08:53:33;;;;;;;11.32;5.35;;;;;;;9.48;64.21;100171.75;5043634;28;20052;-64
2023/01/30 08:56:00;;;;;;;11.18;4.93;;;;;;;9.34;63.97;100182.91;5044389;28;20718;-64
2023/01/30 08:58:27;;;;;;;10.45;4.90;;;;;;;9.38;64.62;100178.34;5044307;28;20052;-64
2023/01/30 09:00:55;;;;;;;11.55;4.78;;;;;;;9.44;63.67;100176.28;5042627;28;20049;-64
2023/01/30 09:03:23;;;;;;;9.35;4.32;;;;;;;9.39;63.23;100179.19;5049441;28;20053;-62
2023/01/30 09:05:54;;;;;;;12.57;4.63;;;;;;;9.29;63.83;100181.06;5044316;28;20513;-64
2023/01/30 09:08:22;;;;;;;12.50;4.53;;;;;;;9.28;64.45;100181.38;5047713;28;20055;-64
2023/01/30 09:10:49;;;;;;;14.75;4.80;;;;;;;9.25;64.64;100180.03;5050192;28;20048;-64
2023/01/30 09:13:17;;;;;;;11.40;4.40;;;;;;;9.24;63.72;100183.97;5050307;28;20063;-62
2023/01/30 09:15:44;;;;;;;10.50;4.07;;;;;;;9.30;62.94;100181.88;5049074;28;20405;-61
2023/01/30 09:18:11;;;;;;;13.82;6.43;;;;;;;9.29;62.44;100203.28;5052093;28;20524;-64
2023/01/30 09:20:40;;;;;;;12.85;4.93;;;;;;;9.25;62.13;100196.72;5047628;28;20395;-64
2023/01/30 09:23:07;;;;;;;9.60;4.30;;;;;;;9.44;62.00;100193.78;5046882;28;20387;-65
2023/01/30 09:25:34;;;;;;;13.23;4.13;;;;;;;9.97;60.20;100186.66;5048311;28;20061;-64
2023/01/30 09:28:01;;;;;;;12.63;4.93;;;;;;;9.83;59.62;100192.31;5048256;28;20394;-64
2023/01/30 09:30:29;;;;;;;10.02;3.22;;;;;;;9.70;59.17;100201.50;5047270;28;20052;-64
2023/01/30 09:32:58;;;;;;;12.05;3.75;;;;;;;9.69;59.50;100197.09;5045716;28;20052;-64
2023/01/30 09:35:25;;;;;;;10.63;3.25;;;;;;;9.56;58.30;100196.00;5049079;28;20060;-64
2023/01/30 09:37:54;;;;;;;12.13;3.05;;;;;;;9.49;59.70;100195.63;5043926;28;20500;-64
2023/01/30 09:40:24;;;;;;;10.35;3.30;;;;;;;9.51;58.22;100207.25;5049331;28;20049;-64
2023/01/30 09:43:22;;;;;;;9.48;3.53;;;;;;;9.44;57.69;100212.44;5047079;28;20040;-64
2023/01/30 09:46:06;;;;;;;7.45;2.63;;;;;;;9.26;58.70;100217.81;5042319;28;20052;-64
2023/01/30 09:48:40;;;;;;;9.82;2.95;;;;;;;9.46;58.13;100204.59;5050125;28;20801;-64
2023/01/30 09:51:34;;;;;;;11.30;3.17;;;;;;;9.51;58.94;100210.03;5046863;28;20072;-67
2023/01/30 09:54:17;;;;;;;8.90;2.80;;;;;;;13.33;51.85;100222.03;5045916;28;20481;-64
2023/01/30 09:56:44;;;;;;;10.43;2.88;;;;;;;12.68;50.49;100222.19;5047882;28;20052;-62
2023/01/30 09:59:23;;;;;;;11.95;2.97;;;;;;;11.64;51.55;100227.91;5047599;28;20061;-64
2023/01/30 10:01:59;;;;;;;11.73;2.85;;;;;;;11.14;52.53;100235.53;5046581;28;20056;-64
2023/01/30 10:04:33;;;;;;;11.45;3.25;;;;;;;10.91;52.86;100234.81;5049664;28;20052;-64
2023/01/30 10:07:15;;;;;;;6.75;2.47;;;;;;;10.61;53.29;100253.22;5047232;28;20056;-64
2023/01/30 10:09:51;;;;;;;8.88;2.80;;;;;;;10.39;54.36;100244.91;5046670;28;20048;-64
2023/01/30 10:12:31;;;;;;;8.80;3.28;;;;;;;10.16;55.23;100248.50;5044961;28;20493;-65
2023/01/30 10:15:18;;;;;;;11.85;3.17;;;;;;;9.99;54.97;100253.94;5043938;28;20103;-64
2023/01/30 10:17:59;;;;;;;9.65;3.15;;;;;;;9.87;56.04;100248.09;5043226;28;20048;-63
2023/01/30 10:20:37;;;;;;;12.98;3.35;;;;;;;9.78;55.56;100252.78;5048616;28;20045;-61
2023/01/30 10:23:22;;;;;;;9.98;3.67;;;;;;;9.65;56.19;100235.84;5044500;28;20060;-64
2023/01/30 10:25:55;;;;;;;13.60;3.58;;;;;;;9.52;55.45;100248.63;5046629;28;20049;-64
2023/01/30 10:28:26;;;;;;;12.82;3.40;;;;;;;9.46;55.70;100243.50;5048918;28;20049;-64
2023/01/30 10:31:01;;;;;;;15.07;3.55;;;;;;;9.54;56.60;100238.03;5046437;28;20059;-65
2023/01/30 10:33:32;;;;;;;13.75;3.40;;;;;;;9.81;55.09;100246.63;5045247;28;20045;-63
2023/01/30 10:36:04;;;;;;;10.73;2.72;;;;;;;10.03;54.57;100243.81;5047846;28;20060;-64
2023/01/30 10:38:39;;;;;;;11.32;3.22;;;;;;;9.95;54.91;100237.06;5043876;28;20056;-64
2023/01/30 10:41:17;;;;;;;14.25;3.35;;;;;;;10.08;53.94;100221.44;5044856;28;20752;-63
2023/01/30 10:43:49;;;;;;;14.50;3.53;;;;;;;10.21;54.33;100227.25;5043892;28;20516;-63
2023/01/30 10:46:26;;;;;;;13.23;3.38;;;;;;;10.22;54.03;100238.06;5042672;28;20356;-64
2023/01/30 10:49:00;;;;;;;12.05;3.42;;;;;;;10.16;53.41;100226.25;5044557;28;20056;-64
2023/01/30 10:51:48;;;;;;;16.08;3.42;;;;;;;10.19;53.48;100222.00;5046057;28;20056;-63
2023/01/30 10:54:23;;;;;;;9.48;2.78;;;;;;;10.16;53.81;100234.59;5047252;28;20517;-64
2023/01/30 10:57:00;;;;;;;13.57;3.35;;;;;;;10.15;53.78;100235.72;5046808;28;20075;-64
2023/01/30 10:59:39;;;;;;;13.15;3.00;;;;;;;10.09;54.66;100248.13;5046522;28;20049;-64
2023/01/30 11:02:19;;;;;;;12.80;2.67;;;;;;;9.98;53.58;100235.59;5041176;28;20056;-65
2023/01/30 11:04:55;;;;;;;13.95;3.33;;;;;;;9.88;54.19;100242.22;5048277;28;20510;-63
2023/01/30 11:07:22;;;;;;;11.48;3.78;;;;;;;9.73;54.18;100232.31;5049956;28;20057;-64
2023/01/30 11:09:49;;;;;;;12.10;3.60;;;;;;;9.78;54.47;100236.09;5047554;28;20413;-61
2023/01/30 11:12:18;;;;;;;12.88;3.30;;;;;;;9.80;54.38;100231.03;5050795;28;20409;-62
2023/01/30 11:15:00;;;;;;;15.57;3.67;;;;;;;9.78;53.89;100244.44;5046250;28;20057;-63
2023/01/30 11:17:33;;;;;;;15.52;4.22;;;;;;;9.69;54.47;100238.81;5047650;28;20058;-66
2023/01/30 11:20:16;;;;;;;10.68;2.72;;;;;;;9.68;54.62;100237.16;5048382;28;20057;-63
2023/01/30 11:22:47;;;;;;;10.82;3.25;;;;;;;9.65;54.15;100251.69;5047535;28;20422;-66
2023/01/30 11:25:17;;;;;;;8.30;3.40;;;;;;;9.64;53.86;100231.41;5042961;28;20045;-61
2023/01/30 11:27:54;;;;;;;13.43;2.83;;;;;;;9.65;54.05;100238.59;5047998;28;20417;-64
2023/01/30 11:30:26;;;;;;;9.63;3.10;;;;;;;9.64;53.50;100263.94;5045539;28;20061;-63
2023/01/30 11:33:05;;;;;;;13.48;3.20;;;;;;;9.53;54.03;100263.34;5046897;28;20049;-63
2023/01/30 11:35:35;;;;;;;11.13;3.58;;;;;;;9.57;54.62;100253.25;5048437;28;20084;-62
2023/01/30 11:38:12;;;;;;;11.68;3.45;;;;;;;9.54;53.88;100251.94;5046121;28;20053;-63
2023/01/30 11:40:40;;;;;;;8.38;2.95;;;;;;;9.73;54.14;100246.22;5050136;28;20485;-63